Time;durP1;ratioP1;P1;durP2;ratioP2;P2;SDS_P1;SDS_P2;PMS_P1;PMS_P2;Temp;Humidity;BMP_temperature;BMP_pressure;BME280_temperature;BME280_humidity;BME280_pressure;Samples;Min_cycle;Max_cycle;Signal;HPM_P1;HPM_P2
2022/11/29 00:01:24;;;;;;;40.98;19.00;;;;;;;-1.00;81.01;98231.30;1699423;83;21395;-73
2022/11/29 00:03:51;;;;;;;41.53;19.45;;;;;;;-1.01;81.09;98233.45;1705118;82;21109;-71
2022/11/29 00:06:22;;;;;;;37.17;18.35;;;;;;;-1.02;81.11;98235.60;1696858;83;21036;-71
2022/11/29 00:08:49;;;;;;;40.10;19.37;;;;;;;-1.02;81.12;98229.09;1694354;83;21040;-71
2022/11/29 00:14:10;;;;;;;33.28;17.45;;;;;;;-1.02;81.25;98233.00;1706980;83;21016;-71
2022/11/29 00:16:39;;;;;;;30.12;16.75;;;;;;;-1.08;80.99;98231.14;1706184;82;20994;-71
2022/11/29 00:19:06;;;;;;;37.28;17.92;;;;;;;-1.18;80.88;98230.49;1703105;83;21028;-72
2022/11/29 00:21:32;;;;;;;35.83;17.60;;;;;;;-1.18;81.29;98226.59;1712640;83;21405;-72
2022/11/29 00:23:59;;;;;;;34.45;16.75;;;;;;;-1.21;81.23;98232.61;1706157;83;21069;-72
2022/11/29 00:26:25;;;;;;;35.85;17.52;;;;;;;-1.26;81.36;98234.64;1710210;83;20972;-71
2022/11/29 00:28:52;;;;;;;34.08;16.97;;;;;;;-1.28;81.24;98229.44;1719724;83;20980;-71
2022/11/29 00:31:29;;;;;;;35.65;16.97;;;;;;;-1.32;81.41;98225.01;1731127;82;21509;-71
2022/11/29 00:33:57;;;;;;;37.95;17.45;;;;;;;-1.36;81.47;98221.88;1732393;83;21012;-71
2022/11/29 00:36:25;;;;;;;39.08;18.50;;;;;;;-1.37;81.86;98225.33;1732478;83;21028;-71
2022/11/29 00:38:52;;;;;;;34.53;17.32;;;;;;;-1.40;81.83;98227.44;1732426;83;21016;-71
2022/11/29 00:41:19;;;;;;;34.58;17.55;;;;;;;-1.37;82.21;98226.63;1732332;82;21040;-72
2022/11/29 00:43:48;;;;;;;39.60;17.45;;;;;;;-1.37;81.81;98225.33;1732366;83;21431;-71
2022/11/29 00:46:14;;;;;;;34.10;17.73;;;;;;;-1.42;81.82;98227.81;1734927;81;20953;-72
2022/11/29 00:48:41;;;;;;;34.43;17.90;;;;;;;-1.41;82.08;98226.10;1752642;81;20991;-71
2022/11/29 00:51:08;;;;;;;34.38;17.57;;;;;;;-1.44;82.04;98224.31;1732250;81;21035;-71
2022/11/29 00:53:36;;;;;;;34.30;16.62;;;;;;;-1.44;82.35;98227.32;1732175;82;20961;-71
2022/11/29 00:56:04;;;;;;;37.67;17.57;;;;;;;-1.46;82.31;98223.38;1735788;81;21000;-71
2022/11/29 00:58:35;;;;;;;34.20;17.42;;;;;;;-1.50;82.24;98222.44;1732584;82;20980;-71
2022/11/29 01:01:02;;;;;;;31.82;16.12;;;;;;;-1.51;82.31;98217.20;1732402;82;21434;-71
2022/11/29 01:03:29;;;;;;;35.00;17.65;;;;;;;-1.54;82.23;98218.02;1732450;83;20984;-71
2022/11/29 01:06:03;;;;;;;31.55;15.85;;;;;;;-1.54;82.47;98221.91;1738021;81;21107;-70
2022/11/29 01:08:32;;;;;;;36.68;17.85;;;;;;;-1.54;82.37;98222.36;1732475;82;20985;-70
2022/11/29 01:11:18;;;;;;;37.45;15.98;;;;;;;-1.58;82.62;98213.59;1729064;83;21676;-72
2022/11/29 01:13:46;;;;;;;32.55;15.53;;;;;;;-1.60;82.55;98212.28;1721407;82;20950;-72
2022/11/29 01:16:14;;;;;;;32.70;16.57;;;;;;;-1.61;82.45;98218.30;1725405;82;20985;-73
2022/11/29 01:18:41;;;;;;;30.35;16.10;;;;;;;-1.62;82.59;98211.34;1719487;83;21408;-71
2022/11/29 01:21:15;;;;;;;35.98;16.55;;;;;;;-1.62;82.69;98210.05;1719472;82;21004;-72
2022/11/29 01:23:43;;;;;;;33.55;15.90;;;;;;;-1.58;82.57;98215.33;1720272;82;20966;-73
2022/11/29 01:26:20;;;;;;;31.93;16.02;;;;;;;-1.62;82.53;98213.09;1694189;83;21433;-72
2022/11/29 01:28:50;;;;;;;33.85;15.43;;;;;;;-1.61;82.95;98213.09;1719482;83;20997;-71
2022/11/29 01:31:21;;;;;;;32.58;15.65;;;;;;;-1.54;82.71;98210.66;1733992;82;21426;-71
2022/11/29 01:33:57;;;;;;;36.70;17.27;;;;;;;-1.60;82.35;98203.19;1731012;82;21000;-71
2022/11/29 01:36:24;;;;;;;36.23;16.40;;;;;;;-1.60;82.66;98207.08;1723624;82;21407;-72
2022/11/29 01:38:51;;;;;;;34.13;17.77;;;;;;;-1.60;82.44;98205.78;1719343;83;21041;-72
2022/11/29 01:41:24;;;;;;;35.43;17.07;;;;;;;-1.65;82.37;98200.02;1733372;82;20975;-73
2022/11/29 01:44:12;;;;;;;34.73;17.80;;;;;;;-1.67;82.28;98201.27;1726170;82;21137;-71
2022/11/29 01:46:45;;;;;;;37.85;17.35;;;;;;;-1.70;82.42;98198.62;1684800;85;20968;-71
2022/11/29 01:49:35;;;;;;;33.45;18.00;;;;;;;-1.70;82.63;98201.22;1719462;83;20985;-71
2022/11/29 01:52:12;;;;;;;38.17;17.82;;;;;;;-1.71;82.38;98200.74;1743103;82;21414;-71
2022/11/29 01:54:44;;;;;;;36.00;16.17;;;;;;;-1.76;82.51;98195.45;1700648;83;20977;-70
2022/11/29 01:57:13;;;;;;;36.15;18.00;;;;;;;-1.76;82.81;98200.65;1719769;82;21001;-71
2022/11/29 01:59:46;;;;;;;36.00;17.82;;;;;;;-1.73;83.00;98203.30;1713130;83;20996;-71
2022/11/29 02:02:21;;;;;;;35.20;16.40;;;;;;;-1.70;82.90;98200.33;1721167;82;20996;-71
2022/11/29 02:04:51;;;;;;;36.73;17.17;;;;;;;-1.70;82.67;98199.03;1719265;83;21048;-71
2022/11/29 02:07:18;;;;;;;34.35;16.45;;;;;;;-1.77;82.35;98196.70;1719506;83;21379;-71
2022/11/29 02:09:44;;;;;;;29.65;16.07;;;;;;;-1.82;82.61;98203.11;1719337;83;21001;-71
2022/11/29 02:12:54;;;;;;;41.45;18.92;;;;;;;-1.81;82.82;98211.36;1727911;81;20997;-71
2022/11/29 02:15:44;;;;;;;36.88;17.23;;;;;;;-1.79;82.94;98206.20;1727223;83;21423;-70
2022/11/29 02:18:28;;;;;;;29.57;15.75;;;;;;;-1.82;82.67;98202.22;1727102;82;20977;-71
2022/11/29 02:21:18;;;;;;;30.85;14.90;;;;;;;-1.87;82.72;98205.59;1731211;81;21059;-71
2022/11/29 02:24:16;;;;;;;33.98;17.82;;;;;;;-1.94;82.53;98208.89;1707775;83;21008;-71
2022/11/29 02:27:16;;;;;;;34.65;16.93;;;;;;;-1.97;82.57;98202.31;1726973;83;20977;-71
2022/11/29 02:30:17;;;;;;;39.85;17.73;;;;;;;-2.01;82.89;98201.38;1725924;82;21411;-71
2022/11/29 02:33:23;;;;;;;38.98;18.57;;;;;;;-1.96;83.00;98206.66;1735654;81;21383;-71
2022/11/29 02:36:07;;;;;;;39.73;17.20;;;;;;;-1.94;82.90;98206.70;1727141;82;21008;-73
2022/11/29 02:38:48;;;;;;;33.90;17.02;;;;;;;-2.04;83.03;98209.52;1726939;82;21474;-71
2022/11/29 02:41:42;;;;;;;31.27;15.90;;;;;;;-2.04;83.02;98214.72;1725462;82;20961;-71
2022/11/29 02:44:41;;;;;;;36.50;16.82;;;;;;;-2.06;83.17;98213.38;1727506;82;20984;-71
2022/11/29 02:47:33;;;;;;;36.30;15.60;;;;;;;-2.05;83.13;98212.94;1727017;82;21458;-71
2022/11/29 02:50:38;;;;;;;28.65;14.05;;;;;;;-2.06;83.35;98215.08;1740633;81;21393;-72
2022/11/29 02:53:49;;;;;;;33.70;16.25;;;;;;;-2.08;83.52;98216.77;1720077;82;21052;-70
2022/11/29 02:56:55;;;;;;;30.27;13.90;;;;;;;-2.08;83.30;98218.93;1707021;83;21004;-70
2022/11/29 02:59:51;;;;;;;32.55;15.83;;;;;;;-2.19;82.73;98213.50;1731345;81;21086;-71
2022/11/29 03:02:52;;;;;;;34.65;15.75;;;;;;;-2.25;82.76;98217.22;1714749;82;20993;-71
2022/11/29 03:05:43;;;;;;;29.10;16.40;;;;;;;-2.28;82.96;98223.20;1727353;83;21403;-71
2022/11/29 03:08:55;;;;;;;35.63;16.30;;;;;;;-2.30;83.19;98219.70;1727141;83;21922;-70
2022/11/29 03:11:59;;;;;;;33.70;15.90;;;;;;;-2.34;83.30;98228.25;1747038;81;21053;-71
2022/11/29 03:14:43;;;;;;;34.67;16.65;;;;;;;-2.30;83.39;98227.91;1719128;83;20938;-71
2022/11/29 03:17:41;;;;;;;31.80;15.53;;;;;;;-2.31;83.43;98237.43;1719504;83;21048;-71
2022/11/29 03:20:38;;;;;;;33.35;16.02;;;;;;;-2.35;83.28;98233.40;1716324;82;21368;-71
2022/11/29 03:23:25;;;;;;;36.48;15.95;;;;;;;-2.30;83.74;98231.80;1699121;84;21028;-71
2022/11/29 03:26:02;;;;;;;31.25;16.45;;;;;;;-2.28;83.77;98234.89;1719662;82;21367;-71
2022/11/29 03:29:05;;;;;;;33.50;15.50;;;;;;;-2.28;83.26;98241.37;1719692;82;21024;-72
2022/11/29 03:31:43;;;;;;;27.75;13.68;;;;;;;-2.29;83.60;98245.23;1714215;83;20978;-72
2022/11/29 03:34:20;;;;;;;28.12;14.33;;;;;;;-2.37;83.53;98242.44;1719605;82;21024;-72
2022/11/29 03:37:23;;;;;;;31.30;14.68;;;;;;;-2.43;83.75;98232.80;1719379;83;21029;-71
2022/11/29 03:40:07;;;;;;;31.97;14.58;;;;;;;-2.44;83.83;98234.94;1733170;82;21446;-71
2022/11/29 03:42:57;;;;;;;29.95;14.47;;;;;;;-2.43;83.82;98247.07;1720578;82;20993;-70
2022/11/29 03:45:44;;;;;;;33.42;15.35;;;;;;;-2.46;83.52;98250.88;1719681;83;20989;-71
2022/11/29 03:48:23;;;;;;;30.12;14.38;;;;;;;-2.46;83.62;98256.06;1733002;82;20916;-70
2022/11/29 03:50:58;;;;;;;26.48;14.35;;;;;;;-2.48;83.73;98258.16;1723691;82;21045;-70
2022/11/29 03:53:42;;;;;;;31.73;14.40;;;;;;;-2.44;83.89;98254.81;1719341;83;21036;-70
2022/11/29 03:56:32;;;;;;;30.65;14.58;;;;;;;-2.44;83.76;98249.21;1719662;82;21412;-71
2022/11/29 03:59:16;;;;;;;30.40;15.08;;;;;;;-2.45;83.62;98250.03;1742930;82;20932;-70
2022/11/29 04:02:29;;;;;;;30.48;14.40;;;;;;;-2.54;83.30;98250.67;1719615;83;21045;-70
2022/11/29 04:05:32;;;;;;;29.63;13.58;;;;;;;-2.56;83.66;98247.17;1719437;83;21036;-72
2022/11/29 04:08:30;;;;;;;32.48;15.03;;;;;;;-2.53;84.03;98258.91;1720668;82;20961;-72
2022/11/29 04:11:05;;;;;;;30.20;14.63;;;;;;;-2.51;83.85;98252.47;1719396;83;20993;-71
2022/11/29 04:13:57;;;;;;;28.50;13.75;;;;;;;-2.54;83.90;98254.56;1731319;83;20997;-71
2022/11/29 04:16:59;;;;;;;35.45;14.60;;;;;;;-2.48;83.89;98252.97;1732452;82;20969;-71
2022/11/29 04:19:46;;;;;;;31.70;14.95;;;;;;;-2.55;83.42;98249.33;1727924;81;21020;-71
2022/11/29 04:22:47;;;;;;;29.42;13.95;;;;;;;-2.59;83.66;98248.37;1738975;82;21032;-72
2022/11/29 04:26:08;;;;;;;29.32;14.38;;;;;;;-2.62;83.69;98254.77;1732517;82;20965;-72
2022/11/29 04:29:03;;;;;;;26.82;13.00;;;;;;;-2.65;83.60;98252.11;1736979;81;21055;-72
2022/11/29 04:31:52;;;;;;;30.68;14.43;;;;;;;-2.67;83.85;98252.06;1732758;82;21103;-71
2022/11/29 04:34:48;;;;;;;28.90;14.53;;;;;;;-2.69;83.58;98258.05;1732287;82;21466;-70
2022/11/29 04:37:26;;;;;;;29.98;14.75;;;;;;;-2.72;83.83;98259.24;1728303;83;21044;-72
2022/11/29 04:40:28;;;;;;;29.27;14.03;;;;;;;-2.70;83.83;98251.10;1744117;81;20997;-72
2022/11/29 04:43:33;;;;;;;31.17;15.45;;;;;;;-2.73;83.79;98254.90;1697709;84;21027;-71
2022/11/29 04:46:17;;;;;;;28.87;13.65;;;;;;;-2.76;83.99;98253.50;1680179;85;21541;-72
2022/11/29 04:49:07;;;;;;;29.15;13.32;;;;;;;-2.72;84.33;98253.65;1688181;85;21001;-71
2022/11/29 04:52:23;;;;;;;30.62;14.33;;;;;;;-2.70;84.03;98251.10;1708522;83;21015;-70
2022/11/29 04:55:24;;;;;;;29.40;13.85;;;;;;;-2.76;83.84;98251.80;1679972;85;21029;-70
2022/11/29 04:58:05;;;;;;;30.95;14.18;;;;;;;-2.79;83.98;98251.30;1681862;85;21427;-70
2022/11/29 05:00:39;;;;;;;28.83;14.98;;;;;;;-2.79;84.22;98252.59;1697641;83;21454;-71
2022/11/29 05:03:12;;;;;;;31.87;16.42;;;;;;;-2.75;84.34;98260.04;1691011;85;20996;-72
2022/11/29 05:05:55;;;;;;;31.23;15.85;;;;;;;-2.71;84.33;98257.10;1692503;85;21060;-72
2022/11/29 05:08:53;;;;;;;31.07;15.48;;;;;;;-2.70;84.37;98258.45;1697150;83;20979;-71
2022/11/29 05:11:50;;;;;;;31.95;14.50;;;;;;;-2.66;84.36;98264.19;1697493;83;21687;-71
2022/11/29 05:14:42;;;;;;;27.02;13.62;;;;;;;-2.69;84.09;98267.98;1692660;83;21029;-72
2022/11/29 05:17:22;;;;;;;27.67;12.90;;;;;;;-2.68;84.14;98259.80;1612544;86;21461;-71
2022/11/29 05:19:57;;;;;;;30.95;13.03;;;;;;;-2.70;84.30;98262.34;1672062;85;20996;-71
2022/11/29 05:22:53;;;;;;;25.90;12.98;;;;;;;-2.66;84.28;98265.92;1667749;86;21020;-70
2022/11/29 05:25:46;;;;;;;30.60;13.98;;;;;;;-2.67;84.18;98266.73;1667368;86;21006;-71
2022/11/29 05:28:38;;;;;;;36.23;14.33;;;;;;;-2.67;84.33;98274.11;1649081;85;21045;-71
2022/11/29 05:31:29;;;;;;;33.18;14.83;;;;;;;-2.63;84.33;98276.37;1668191;86;20976;-72
2022/11/29 05:34:21;;;;;;;28.87;15.20;;;;;;;-2.64;84.06;98272.02;1668313;86;21064;-71
2022/11/29 05:37:05;;;;;;;31.45;13.65;;;;;;;-2.62;84.31;98274.66;1667895;86;21378;-72
2022/11/29 05:39:59;;;;;;;34.65;14.87;;;;;;;-2.65;84.11;98267.23;1670901;85;21048;-71
2022/11/29 05:42:51;;;;;;;30.57;15.37;;;;;;;-2.67;84.19;98271.92;1668301;86;20933;-72
2022/11/29 05:45:32;;;;;;;32.15;15.80;;;;;;;-2.62;84.55;98276.81;1648028;86;21224;-72
2022/11/29 05:48:13;;;;;;;33.78;16.07;;;;;;;-2.59;84.27;98272.13;1652630;85;22032;-72
2022/11/29 05:51:02;;;;;;;32.80;15.45;;;;;;;-2.60;84.19;98279.06;1698239;83;21004;-71
2022/11/29 05:54:06;;;;;;;38.35;17.92;;;;;;;-2.65;84.04;98284.54;1692880;83;20992;-72
2022/11/29 05:57:04;;;;;;;34.08;16.75;;;;;;;-2.64;84.39;98282.40;1671045;85;21403;-71
2022/11/29 05:59:36;;;;;;;28.92;14.68;;;;;;;-2.59;84.63;98287.70;1694030;83;21031;-71
2022/11/29 06:02:32;;;;;;;35.25;15.55;;;;;;;-2.58;84.45;98288.19;1692152;83;21005;-72
2022/11/29 06:05:36;;;;;;;33.55;14.85;;;;;;;-2.56;84.11;98287.39;1645523;86;21455;-71
2022/11/29 06:08:14;;;;;;;28.45;14.55;;;;;;;-2.62;83.97;98286.34;1693553;83;21084;-72
2022/11/29 06:10:59;;;;;;;43.42;20.27;;;;;;;-2.61;84.27;98284.20;1666048;86;21063;-72
2022/11/29 06:14:00;;;;;;;53.40;23.55;;;;;;;-2.58;84.49;98279.97;1652705;86;21065;-72
2022/11/29 06:17:01;;;;;;;57.05;26.77;;;;;;;-2.55;84.52;98289.14;1720660;82;20994;-71
2022/11/29 06:19:42;;;;;;;52.95;24.10;;;;;;;-2.52;84.70;98284.02;1727707;82;21000;-71
2022/11/29 06:22:22;;;;;;;60.12;26.10;;;;;;;-2.46;84.85;98292.84;1684832;85;21485;-71
2022/11/29 06:25:36;;;;;;;54.40;25.20;;;;;;;-2.42;84.60;98292.95;1718339;83;21025;-71
2022/11/29 06:28:37;;;;;;;64.77;26.95;;;;;;;-2.39;84.68;98290.85;1742158;82;21358;-72
2022/11/29 06:31:21;;;;;;;56.20;26.00;;;;;;;-2.40;84.59;98291.26;1681603;85;20985;-71
2022/11/29 06:34:06;;;;;;;53.17;24.05;;;;;;;-2.36;85.01;98288.35;1731410;82;20966;-72
2022/11/29 06:37:03;;;;;;;55.63;24.43;;;;;;;-2.33;84.80;98289.71;1725134;81;21057;-72
2022/11/29 06:39:30;;;;;;;48.52;21.42;;;;;;;-2.33;84.96;98289.71;1718679;83;20986;-71
2022/11/29 06:41:56;;;;;;;46.28;21.52;;;;;;;-2.34;84.99;98289.26;1722576;82;21196;-72
2022/11/29 06:44:23;;;;;;;51.37;22.58;;;;;;;-2.33;85.06;98279.33;1724212;82;20972;-72
2022/11/29 06:47:01;;;;;;;50.88;23.27;;;;;;;-2.30;85.23;98291.10;1724884;83;21339;-73
2022/11/29 06:49:52;;;;;;;49.30;22.95;;;;;;;-2.25;85.23;98289.91;1714448;82;20997;-72
2022/11/29 06:52:46;;;;;;;51.53;22.17;;;;;;;-2.23;85.04;98293.45;1725074;82;20956;-71
2022/11/29 06:55:33;;;;;;;50.03;24.18;;;;;;;-2.19;84.99;98290.50;1713071;82;21410;-73
2022/11/29 06:58:14;;;;;;;50.45;24.02;;;;;;;-2.14;85.06;98296.69;1720001;82;21529;-74
2022/11/29 07:01:01;;;;;;;49.73;23.20;;;;;;;-2.13;85.07;98301.94;1719910;82;20966;-73
2022/11/29 07:03:53;;;;;;;52.90;23.07;;;;;;;-2.07;85.21;98297.73;1721988;82;21721;-72
2022/11/29 07:06:24;;;;;;;47.73;22.42;;;;;;;-2.04;84.81;98295.23;1688317;83;21025;-73
2022/11/29 07:09:01;;;;;;;45.70;22.60;;;;;;;-1.97;85.06;98295.83;1666770;85;21061;-73
2022/11/29 07:11:28;;;;;;;54.13;22.42;;;;;;;-1.89;85.01;98299.92;1716665;82;21076;-72
2022/11/29 07:13:56;;;;;;;55.98;23.95;;;;;;;-1.85;84.98;98293.97;1730816;81;21127;-72
2022/11/29 07:16:34;;;;;;;51.08;24.23;;;;;;;-1.75;85.11;98298.95;1750290;81;20988;-72
2022/11/29 07:19:27;;;;;;;52.88;23.98;;;;;;;-1.67;85.12;98296.56;1702970;83;21120;-73
2022/11/29 07:22:20;;;;;;;56.08;23.57;;;;;;;-1.60;84.91;98290.25;1711674;81;20976;-73
2022/11/29 07:25:12;;;;;;;52.50;22.93;;;;;;;-1.51;85.10;98293.89;1726696;81;20913;-72
2022/11/29 07:28:30;;;;;;;59.30;27.07;;;;;;;-1.48;84.96;98287.06;1750407;81;21440;-72
2022/11/29 07:31:14;;;;;;;63.78;28.30;;;;;;;-1.41;84.79;98291.10;1726429;81;21024;-72
2022/11/29 07:33:58;;;;;;;58.87;26.40;;;;;;;-1.40;85.08;98296.34;1709082;81;21040;-72
2022/11/29 07:36:36;;;;;;;65.83;29.85;;;;;;;-1.31;85.04;98296.07;1734973;81;21211;-73
2022/11/29 07:39:14;;;;;;;70.05;32.20;;;;;;;-1.22;85.39;98293.69;1734192;81;21474;-72
2022/11/29 07:41:46;;;;;;;71.37;30.35;;;;;;;-1.14;85.72;98290.84;1732137;82;21445;-72
2022/11/29 07:44:29;;;;;;;79.07;32.55;;;;;;;-1.04;85.28;98287.14;1732966;81;21422;-73
2022/11/29 07:46:56;;;;;;;80.55;33.88;;;;;;;-0.97;85.51;98296.82;1706585;83;21036;-72
2022/11/29 07:49:22;;;;;;;83.05;35.95;;;;;;;-0.90;85.45;98293.52;1692061;84;21463;-73
2022/11/29 07:51:48;;;;;;;83.55;36.68;;;;;;;-0.82;85.63;98293.68;1676192;84;21004;-71
2022/11/29 07:54:18;;;;;;;78.87;34.23;;;;;;;-0.76;85.64;98295.51;1697888;83;21024;-71
2022/11/29 07:56:45;;;;;;;81.25;33.65;;;;;;;-0.67;85.63;98292.69;1697100;83;21032;-71
2022/11/29 07:59:13;;;;;;;82.37;34.45;;;;;;;-0.59;86.25;98291.53;1698780;83;21146;-71
2022/11/29 08:01:40;;;;;;;81.80;32.93;;;;;;;-0.55;86.00;98288.56;1697699;83;20977;-72
2022/11/29 08:04:08;;;;;;;92.50;34.67;;;;;;;-0.47;85.98;98288.71;1716464;83;21052;-72
2022/11/29 08:06:35;;;;;;;91.60;37.55;;;;;;;-0.45;86.13;98283.98;1699089;83;21101;-72
2022/11/29 08:09:06;;;;;;;104.05;38.73;;;;;;;-0.41;85.77;98288.85;1703704;83;21067;-72
2022/11/29 08:11:32;;;;;;;91.80;37.70;;;;;;;-0.33;85.84;98280.73;1713217;83;21422;-72
2022/11/29 08:14:02;;;;;;;90.05;38.30;;;;;;;-0.25;86.22;98283.48;1694942;83;21000;-72
2022/11/29 08:16:29;;;;;;;102.30;39.75;;;;;;;-0.14;85.52;98281.97;1697436;83;20997;-73
2022/11/29 08:18:56;;;;;;;95.45;40.43;;;;;;;-0.11;85.74;98282.45;1699326;83;21072;-73
2022/11/29 08:21:22;;;;;;;100.58;40.17;;;;;;;-0.02;85.54;98285.22;1698766;83;20969;-72
2022/11/29 08:23:50;;;;;;;96.57;40.23;;;;;;;0.03;85.28;98280.52;1698617;83;21016;-72
2022/11/29 08:26:18;;;;;;;95.50;39.40;;;;;;;0.06;85.26;98281.45;1701425;83;21020;-72
2022/11/29 08:28:45;;;;;;;83.72;37.45;;;;;;;0.12;85.14;98280.65;1698937;83;20996;-71
2022/11/29 08:31:12;;;;;;;87.97;37.98;;;;;;;0.16;85.13;98285.06;1701547;83;21469;-72
2022/11/29 08:33:42;;;;;;;74.05;33.45;;;;;;;0.12;84.95;98283.25;1697574;83;21470;-71
2022/11/29 08:36:17;;;;;;;79.62;34.92;;;;;;;0.15;85.16;98283.32;1686229;83;21430;-71
2022/11/29 08:38:44;;;;;;;66.82;31.57;;;;;;;0.19;85.25;98273.81;1691440;84;21023;-71
2022/11/29 08:41:13;;;;;;;62.25;27.67;;;;;;;0.23;85.26;98276.92;1713602;83;21470;-71
2022/11/29 08:43:41;;;;;;;60.17;29.45;;;;;;;0.30;85.35;98274.00;1697357;84;21135;-71
2022/11/29 08:46:08;;;;;;;58.28;27.77;;;;;;;0.36;85.35;98269.77;1697238;84;21012;-72
2022/11/29 08:48:35;;;;;;;55.95;27.75;;;;;;;0.43;85.34;98272.45;1697206;84;21004;-72
2022/11/29 08:51:05;;;;;;;56.40;27.52;;;;;;;0.48;85.10;98268.19;1715623;83;21023;-72
2022/11/29 08:53:41;;;;;;;58.00;26.17;;;;;;;0.50;85.00;98253.46;1697294;84;21471;-72
2022/11/29 08:56:15;;;;;;;55.12;26.57;;;;;;;0.55;85.10;98263.95;1697313;84;21345;-72
2022/11/29 08:58:41;;;;;;;48.80;24.43;;;;;;;0.60;84.97;98259.26;1697164;84;21422;-71
2022/11/29 09:01:19;;;;;;;45.45;23.70;;;;;;;0.67;85.22;98256.31;1675044;83;20990;-71
2022/11/29 09:03:58;;;;;;;49.93;24.02;;;;;;;0.74;84.99;98254.23;1683544;83;21030;-71
2022/11/29 09:06:30;;;;;;;46.75;24.25;;;;;;;0.83;84.90;98252.61;1673725;83;21096;-72
2022/11/29 09:08:59;;;;;;;51.40;24.18;;;;;;;0.85;84.88;98245.67;1672533;83;21036;-72
2022/11/29 09:11:28;;;;;;;49.13;24.65;;;;;;;0.90;84.93;98245.30;1677058;83;20984;-72
2022/11/29 09:13:59;;;;;;;47.98;24.35;;;;;;;0.97;84.68;98237.12;1700921;83;22075;-72
2022/11/29 09:16:29;;;;;;;45.60;23.32;;;;;;;1.02;84.80;98238.06;1703237;83;21008;-73
2022/11/29 09:18:56;;;;;;;47.05;23.77;;;;;;;1.08;84.58;98239.88;1702991;83;21047;-73
2022/11/29 09:21:26;;;;;;;52.67;25.30;;;;;;;1.15;84.73;98237.36;1702254;83;20970;-72
2022/11/29 09:23:57;;;;;;;48.40;22.95;;;;;;;1.22;84.34;98234.41;1677158;84;21406;-73
2022/11/29 09:26:32;;;;;;;51.85;23.25;;;;;;;1.24;84.02;98232.67;1697457;84;21450;-73
2022/11/29 09:29:01;;;;;;;46.53;22.58;;;;;;;1.27;83.96;98231.83;1691553;84;20949;-71
2022/11/29 09:31:29;;;;;;;40.25;20.45;;;;;;;1.31;83.81;98236.23;1673731;83;21066;-74
2022/11/29 09:33:57;;;;;;;42.15;21.93;;;;;;;1.35;83.74;98240.64;1685162;85;21016;-72
2022/11/29 09:36:24;;;;;;;44.15;21.68;;;;;;;1.41;83.77;98235.92;1685160;84;21021;-71
2022/11/29 09:38:50;;;;;;;42.70;20.52;;;;;;;1.47;83.78;98232.48;1687155;85;21438;-72
2022/11/29 09:41:50;;;;;;;48.75;20.55;;;;;;;1.53;83.69;98233.43;1698201;84;21060;-73
2022/11/29 09:44:24;;;;;;;44.33;22.48;;;;;;;1.57;83.65;98240.45;1672666;84;21473;-72
2022/11/29 09:47:25;;;;;;;46.95;22.25;;;;;;;1.67;83.44;98243.16;1697417;84;21063;-73
2022/11/29 09:50:00;;;;;;;41.00;20.60;;;;;;;1.70;83.34;98238.83;1697326;84;20980;-72
2022/11/29 09:52:53;;;;;;;45.73;22.58;;;;;;;1.77;83.07;98228.42;1716465;83;21094;-70
2022/11/29 09:56:17;;;;;;;45.65;21.15;;;;;;;1.83;82.96;98232.43;1686926;85;21473;-71
2022/11/29 09:58:59;;;;;;;44.95;21.50;;;;;;;1.89;82.94;98238.13;1686778;83;21076;-73
2022/11/29 10:01:35;;;;;;;46.95;22.42;;;;;;;1.95;82.53;98235.14;1661351;84;20971;-71
2022/11/29 10:04:13;;;;;;;46.70;22.10;;;;;;;2.02;82.64;98236.48;1696177;83;21033;-72
2022/11/29 10:06:51;;;;;;;43.42;20.50;;;;;;;2.11;82.71;98232.66;1695898;84;21008;-71
2022/11/29 10:09:23;;;;;;;39.13;20.72;;;;;;;2.18;82.40;98227.05;1682804;83;20997;-72
2022/11/29 10:12:01;;;;;;;49.00;21.25;;;;;;;2.26;82.48;98232.33;1665520;84;21160;-68
2022/11/29 10:14:53;;;;;;;44.85;19.77;;;;;;;2.35;82.41;98217.59;1664016;85;20997;-68
2022/11/29 10:17:36;;;;;;;42.75;20.65;;;;;;;2.45;82.14;98224.20;1690296;84;20946;-69
2022/11/29 10:20:19;;;;;;;40.78;21.37;;;;;;;2.56;81.92;98219.91;1685425;84;21001;-70
2022/11/29 10:23:00;;;;;;;37.53;19.80;;;;;;;2.71;81.88;98222.17;1688198;84;21387;-69
2022/11/29 10:25:36;;;;;;;36.35;18.80;;;;;;;2.82;81.62;98217.86;1686084;84;21025;-69
2022/11/29 10:28:08;;;;;;;41.63;21.40;;;;;;;2.96;80.31;98214.45;1688557;83;20981;-69
2022/11/29 10:30:35;;;;;;;35.73;19.55;;;;;;;3.08;80.46;98209.70;1688006;84;21143;-69
2022/11/29 10:33:02;;;;;;;38.63;19.85;;;;;;;3.26;80.81;98200.60;1689648;84;20941;-69
2022/11/29 10:35:28;;;;;;;41.50;19.80;;;;;;;4.07;82.06;98205.10;1677029;84;21001;-68
2022/11/29 10:37:57;;;;;;;36.48;19.20;;;;;;;5.13;78.61;98201.81;1670056;84;22129;-70
2022/11/29 10:40:29;;;;;;;36.30;19.20;;;;;;;6.08;76.08;98195.13;1692885;84;20999;-69
2022/11/29 10:42:58;;;;;;;34.30;19.52;;;;;;;7.16;74.96;98194.91;1682266;84;21013;-69
2022/11/29 10:45:37;;;;;;;30.57;19.00;;;;;;;7.92;71.53;98195.60;1692354;83;20973;-70
2022/11/29 10:48:15;;;;;;;29.95;19.48;;;;;;;8.78;71.79;98184.48;1717641;82;21422;-69
2022/11/29 10:50:45;;;;;;;32.00;20.12;;;;;;;9.53;66.70;98180.74;1695928;83;20973;-69
2022/11/29 10:53:22;;;;;;;26.37;17.80;;;;;;;10.03;61.85;98168.12;1700781;83;20989;-68
2022/11/29 10:56:21;;;;;;;26.48;17.85;;;;;;;10.63;64.05;98168.82;1724788;82;20964;-68
2022/11/29 10:59:07;;;;;;;24.12;16.93;;;;;;;11.30;58.28;98164.29;1675897;83;20989;-68
2022/11/29 11:01:42;;;;;;;25.97;17.82;;;;;;;11.95;61.80;98162.75;1691746;83;20996;-68
2022/11/29 11:04:32;;;;;;;25.75;16.95;;;;;;;12.54;53.03;98154.17;1692770;83;21052;-69
2022/11/29 11:07:03;;;;;;;27.77;17.40;;;;;;;13.23;55.65;98162.81;1698097;82;21520;-69
2022/11/29 11:09:38;;;;;;;23.30;15.95;;;;;;;13.62;53.24;98147.58;1693338;83;21012;-70
2022/11/29 11:12:19;;;;;;;23.50;16.70;;;;;;;14.09;53.24;98145.28;1695232;83;21518;-70
2022/11/29 11:14:50;;;;;;;22.37;15.68;;;;;;;14.65;53.97;98145.57;1704811;82;21051;-69
2022/11/29 11:17:31;;;;;;;24.27;15.60;;;;;;;14.58;49.38;98147.25;1714264;83;20992;-69
2022/11/29 11:20:04;;;;;;;23.67;17.42;;;;;;;14.35;49.97;98141.97;1706074;83;21390;-69
2022/11/29 11:22:33;;;;;;;24.25;16.48;;;;;;;14.62;49.92;98131.52;1707884;81;21024;-68
2022/11/29 11:25:10;;;;;;;20.80;15.15;;;;;;;14.88;50.82;98131.72;1715533;83;21061;-69
2022/11/29 11:27:40;;;;;;;19.30;13.65;;;;;;;15.20;49.86;98120.48;1703937;83;21005;-69
2022/11/29 11:30:23;;;;;;;18.87;13.72;;;;;;;15.46;49.48;98123.75;1730411;81;20954;-69
2022/11/29 11:33:18;;;;;;;24.10;14.78;;;;;;;15.60;46.21;98127.08;1740215;81;21107;-69
2022/11/29 11:36:20;;;;;;;22.75;14.10;;;;;;;15.77;43.52;98132.06;1723500;81;21008;-69
2022/11/29 11:39:10;;;;;;;21.87;13.98;;;;;;;16.02;43.80;98126.42;1704321;83;21032;-68
2022/11/29 11:44:49;;;;;;;19.67;14.03;;;;;;;16.03;43.38;98125.97;1710871;81;21004;-70
2022/11/29 11:47:20;;;;;;;19.95;13.25;;;;;;;16.06;42.87;98114.64;1715448;82;21520;-70
2022/11/29 11:50:01;;;;;;;19.45;12.43;;;;;;;16.10;44.47;98114.88;1713340;81;21048;-69
2022/11/29 11:52:52;;;;;;;16.77;12.25;;;;;;;15.52;41.13;98117.23;1710720;81;21007;-68
2022/11/29 11:55:41;;;;;;;21.50;12.82;;;;;;;15.43;43.06;98123.42;1760064;81;20952;-71
2022/11/29 11:58:17;;;;;;;19.85;13.25;;;;;;;15.51;42.16;98118.17;1760234;81;20957;-69
2022/11/29 12:00:52;;;;;;;20.20;13.05;;;;;;;15.54;42.10;98114.88;1720806;81;21440;-70
2022/11/29 12:03:24;;;;;;;18.10;12.18;;;;;;;15.51;43.56;98114.16;1724767;81;20988;-70
2022/11/29 12:05:56;;;;;;;18.07;11.97;;;;;;;14.96;43.62;98114.02;1703686;83;21008;-70
2022/11/29 12:08:28;;;;;;;17.45;11.97;;;;;;;14.32;43.93;98112.77;1706671;83;20992;-70
2022/11/29 12:11:01;;;;;;;21.37;12.50;;;;;;;13.78;43.29;98102.56;1729561;82;21060;-69
2022/11/29 12:13:32;;;;;;;18.55;11.38;;;;;;;13.64;44.79;98111.58;1714784;81;21461;-69
2022/11/29 12:16:07;;;;;;;18.12;11.65;;;;;;;13.25;43.68;98111.73;1719190;82;21052;-70
2022/11/29 12:18:45;;;;;;;14.40;9.70;;;;;;;12.78;46.19;98109.47;1712352;82;21073;-69
2022/11/29 12:21:20;;;;;;;14.60;8.30;;;;;;;12.37;46.45;98108.25;1716648;82;20960;-70
2022/11/29 12:24:22;;;;;;;;;;;;;;;11.63;44.84;98108.92;1708813;84;21048;-69
2022/11/29 12:26:51;;;;;;;12.30;7.25;;;;;;;11.14;46.48;98105.55;1674706;84;20103;-70